createdAt,value
2023-01-09T00:00:11.407Z,99478.75
2023-01-09T00:02:41.137Z,99524.91
2023-01-09T00:05:11.415Z,99498.84
2023-01-09T00:07:40.304Z,99552.88
2023-01-09T00:10:11.425Z,99555.44
2023-01-09T00:12:40.346Z,99528.53
2023-01-09T00:15:12.710Z,99525.84
2023-01-09T00:17:41.136Z,99519.69
2023-01-09T00:20:12.570Z,99527.50
2023-01-09T00:22:41.056Z,99557.91
2023-01-09T00:25:10.427Z,99441.31
2023-01-09T00:27:39.072Z,99538.75
2023-01-09T00:30:12.135Z,99557.00
2023-01-09T00:32:41.227Z,99558.72
2023-01-09T00:35:13.009Z,99559.63
2023-01-09T00:37:41.364Z,99551.69
2023-01-09T00:40:11.915Z,99556.00
2023-01-09T00:42:41.043Z,99497.59
2023-01-09T00:45:17.418Z,99551.66
2023-01-09T00:47:51.517Z,99518.53
2023-01-09T00:50:25.685Z,99542.88
2023-01-09T00:52:57.238Z,99545.47
2023-01-09T00:55:26.642Z,99547.16
2023-01-09T00:57:55.146Z,99548.00
2023-01-09T01:00:25.208Z,99545.44
2023-01-09T01:02:53.589Z,99491.47
2023-01-09T01:05:39.625Z,99551.47
2023-01-09T01:08:12.684Z,99534.81
2023-01-09T01:10:41.274Z,99536.47
2023-01-09T01:13:10.218Z,99558.34
2023-01-09T01:15:42.814Z,99564.38
2023-01-09T01:18:11.564Z,99522.59
2023-01-09T01:20:42.443Z,99572.91
2023-01-09T01:23:11.020Z,99576.34
2023-01-09T01:25:40.377Z,99564.09
2023-01-09T01:28:10.429Z,99575.38
2023-01-09T01:30:42.516Z,99496.97
2023-01-09T01:33:14.150Z,99577.06
2023-01-09T01:35:42.816Z,99582.31
2023-01-09T01:38:11.131Z,99543.75
2023-01-09T01:40:40.730Z,99506.53
2023-01-09T01:43:13.265Z,99550.03
2023-01-09T01:45:43.388Z,99575.13
2023-01-09T01:48:17.239Z,99573.50
2023-01-09T01:50:49.837Z,99577.94
2023-01-09T01:53:24.643Z,99566.66
2023-01-09T01:56:07.247Z,99575.28
2023-01-09T01:58:39.886Z,99581.38
2023-01-09T02:01:11.222Z,99512.63
2023-01-09T02:03:41.170Z,99506.34
2023-01-09T02:06:11.922Z,99575.94
2023-01-09T02:08:40.328Z,99560.34
2023-01-09T02:11:09.620Z,99569.09
2023-01-09T02:13:40.523Z,99576.91
2023-01-09T02:16:27.789Z,99570.72
2023-01-09T02:19:07.526Z,99564.44
2023-01-09T02:21:51.678Z,99567.94
2023-01-09T02:25:07.081Z,99524.34
2023-01-09T02:28:23.377Z,99565.31
2023-01-09T02:30:58.233Z,99542.59
2023-01-09T02:33:47.552Z,99554.03
2023-01-09T02:36:31.426Z,99555.56
2023-01-09T02:39:21.899Z,99566.81
2023-01-09T02:41:59.679Z,99557.19
2023-01-09T02:44:31.187Z,99528.66
2023-01-09T02:47:07.714Z,99575.63
2023-01-09T02:49:39.694Z,99572.06
2023-01-09T02:52:25.577Z,99575.50
2023-01-09T02:55:10.308Z,99545.88
2023-01-09T02:57:59.513Z,99522.38
2023-01-09T03:00:37.465Z,99573.81
2023-01-09T03:03:13.820Z,99573.75
2023-01-09T03:05:48.429Z,99563.22
2023-01-09T03:08:22.172Z,99576.28
2023-01-09T03:10:57.314Z,99538.81
2023-01-09T03:13:29.988Z,99508.38
2023-01-09T03:16:01.811Z,99556.44
2023-01-09T03:18:34.336Z,99570.94
2023-01-09T03:21:03.531Z,99540.69
2023-01-09T03:23:49.324Z,99504.78
2023-01-09T03:26:19.231Z,99509.97
2023-01-09T03:28:48.549Z,99565.63
2023-01-09T03:31:17.347Z,99556.09
2023-01-09T03:33:47.101Z,99501.13
2023-01-09T03:36:18.062Z,99516.13
2023-01-09T03:38:46.560Z,99532.00
2023-01-09T03:41:14.920Z,99546.66
2023-01-09T03:43:43.521Z,99358.34
2023-01-09T03:46:12.286Z,99550.25
2023-01-09T03:48:40.750Z,99555.22
2023-01-09T03:51:10.806Z,99500.47
2023-01-09T03:53:39.447Z,99557.25
2023-01-09T03:56:08.733Z,99539.94
2023-01-09T03:58:37.124Z,99470.44
2023-01-09T04:01:09.520Z,99564.59
2023-01-09T04:03:38.113Z,99552.63
2023-01-09T04:06:07.836Z,99558.69
2023-01-09T04:08:37.646Z,99556.19
2023-01-09T04:11:06.257Z,99562.38
2023-01-09T04:13:34.986Z,99551.94
2023-01-09T04:16:03.594Z,99532.94
2023-01-09T04:18:31.997Z,99524.34
2023-01-09T04:21:00.566Z,99467.66
2023-01-09T04:23:28.960Z,99526.97
2023-01-09T04:25:58.743Z,99543.50
2023-01-09T04:28:27.258Z,99546.03
2023-01-09T04:30:56.738Z,99534.75
2023-01-09T04:33:25.126Z,99521.69
2023-01-09T04:35:53.469Z,99504.16
2023-01-09T04:38:21.983Z,99506.75
2023-01-09T04:40:50.453Z,99530.34
2023-01-09T04:43:20.610Z,99516.50
2023-01-09T04:45:49.118Z,99535.69
2023-01-09T04:48:17.639Z,99533.94
2023-01-09T04:50:46.008Z,99531.34
2023-01-09T04:53:14.375Z,99521.00
2023-01-09T04:55:43.083Z,99506.09
2023-01-09T04:58:11.658Z,99524.50
2023-01-09T05:00:41.947Z,99525.25
2023-01-09T05:03:10.385Z,99499.19
2023-01-09T05:05:38.899Z,99514.09
2023-01-09T05:08:08.043Z,99519.44
2023-01-09T05:10:36.359Z,99512.50
2023-01-09T05:13:04.710Z,99482.03
2023-01-09T05:15:33.083Z,99475.22
2023-01-09T05:18:03.232Z,99514.28
2023-01-09T05:20:31.690Z,99511.78
2023-01-09T05:23:00.401Z,99465.72
2023-01-09T05:25:28.872Z,99512.63
2023-01-09T05:27:57.256Z,99469.97
2023-01-09T05:30:25.676Z,99499.69
2023-01-09T05:32:54.236Z,99490.09
2023-01-09T05:35:24.268Z,99516.94
2023-01-09T05:37:52.629Z,99497.81
2023-01-09T05:40:23.151Z,99504.88
2023-01-09T05:42:55.002Z,99426.56
2023-01-09T05:45:23.476Z,99497.94
2023-01-09T05:47:51.893Z,99506.59
2023-01-09T05:50:20.654Z,99506.69
2023-01-09T05:52:50.464Z,99459.72
2023-01-09T05:55:19.718Z,99502.38
2023-01-09T05:57:48.196Z,99504.34
2023-01-09T06:00:18.535Z,99495.50
2023-01-09T06:02:46.929Z,99492.88
2023-01-09T06:05:15.436Z,99454.47
2023-01-09T06:07:43.937Z,99516.28
2023-01-09T06:10:15.888Z,99518.13
2023-01-09T06:12:49.070Z,99447.56
2023-01-09T06:15:18.289Z,99507.59
2023-01-09T06:17:46.733Z,99517.16
2023-01-09T06:20:15.334Z,99494.53
2023-01-09T06:22:44.812Z,99511.91
2023-01-09T06:25:15.021Z,99481.47
2023-01-09T06:27:43.496Z,99520.63
2023-01-09T06:30:13.336Z,99521.47
2023-01-09T06:32:42.900Z,99479.75
2023-01-09T06:35:11.905Z,99485.84
2023-01-09T06:37:40.416Z,99512.78
2023-01-09T06:40:10.652Z,99520.72
2023-01-09T06:42:40.463Z,99517.94
2023-01-09T06:45:10.773Z,99513.66
2023-01-09T06:47:39.345Z,99445.75
2023-01-09T06:50:10.320Z,99500.44
2023-01-09T06:52:39.113Z,99529.06
2023-01-09T06:55:09.238Z,99476.81
2023-01-09T06:57:39.338Z,99532.59
2023-01-09T07:00:09.819Z,99519.44
2023-01-09T07:02:38.252Z,99481.19
2023-01-09T07:05:08.765Z,99408.94
2023-01-09T07:07:37.638Z,99566.53
2023-01-09T07:10:07.845Z,99491.59
2023-01-09T07:12:36.745Z,99577.78
2023-01-09T07:15:08.737Z,99576.81
2023-01-09T07:17:37.358Z,99523.63
2023-01-09T07:20:07.893Z,99577.63
2023-01-09T07:22:36.368Z,99584.63
2023-01-09T07:25:05.589Z,99582.91
2023-01-09T07:27:35.405Z,99554.03
2023-01-09T07:30:03.839Z,99574.91
2023-01-09T07:32:33.838Z,99600.13
2023-01-09T07:35:02.348Z,99578.28
2023-01-09T07:37:30.981Z,99622.69
2023-01-09T07:39:59.684Z,99638.34
2023-01-09T07:42:28.343Z,99637.41
2023-01-09T07:44:56.727Z,99641.84
2023-01-09T07:47:25.518Z,99595.50
2023-01-09T07:49:55.552Z,99652.91
2023-01-09T07:52:24.111Z,99661.44
2023-01-09T07:54:52.526Z,99676.25
2023-01-09T07:57:21.004Z,99683.22
2023-01-09T07:59:49.427Z,99612.66
2023-01-09T08:02:18.181Z,99693.72
2023-01-09T08:04:46.723Z,99692.16
2023-01-09T08:07:16.655Z,99693.94
2023-01-09T08:09:44.996Z,99693.06
2023-01-09T08:12:13.431Z,99629.13
2023-01-09T08:14:41.912Z,99721.69
2023-01-09T08:17:11.760Z,99692.97
2023-01-09T08:19:40.257Z,99708.75
2023-01-09T08:22:08.758Z,99689.56
2023-01-09T08:24:38.532Z,99731.47
2023-01-09T08:27:07.188Z,99727.03
2023-01-09T08:29:37.754Z,99728.66
2023-01-09T08:32:06.843Z,99711.19
2023-01-09T08:34:36.249Z,99692.91
2023-01-09T08:37:04.787Z,99740.78
2023-01-09T08:39:33.473Z,99748.59
2023-01-09T08:42:21.137Z,99713.63
2023-01-09T08:45:06.980Z,99752.97
2023-01-09T08:47:36.708Z,99745.00
2023-01-09T08:50:05.958Z,99765.31
2023-01-09T08:52:34.750Z,99747.13
2023-01-09T08:55:03.167Z,99726.06
2023-01-09T08:57:33.288Z,99789.75
2023-01-09T09:00:01.752Z,99785.28
2023-01-09T09:02:30.371Z,99781.09
2023-01-09T09:04:59.470Z,99774.78
2023-01-09T09:07:27.919Z,99731.09
2023-01-09T09:09:57.034Z,99806.28
2023-01-09T09:12:26.472Z,99769.75
2023-01-09T09:15:16.436Z,99823.97
2023-01-09T09:17:45.614Z,99784.91
2023-01-09T09:20:14.117Z,99801.53
2023-01-09T09:22:42.597Z,99847.69
2023-01-09T09:25:11.041Z,99840.63
2023-01-09T09:27:39.618Z,99816.28
2023-01-09T09:30:12.136Z,99823.28
2023-01-09T09:32:41.938Z,99848.69
2023-01-09T09:35:11.342Z,99832.88
2023-01-09T09:37:40.438Z,99797.09
2023-01-09T09:40:19.113Z,99825.03
2023-01-09T09:43:29.375Z,99869.41
2023-01-09T09:46:12.127Z,99869.31
2023-01-09T09:48:49.385Z,99876.19
2023-01-09T09:51:43.475Z,99880.47
2023-01-09T09:54:17.644Z,99857.53
2023-01-09T09:56:57.318Z,99905.28
2023-01-09T09:59:30.103Z,99902.69
2023-01-09T10:02:06.044Z,99867.53
2023-01-09T10:04:37.774Z,99869.56
2023-01-09T10:07:09.888Z,99841.72
2023-01-09T10:09:48.538Z,99942.31
2023-01-09T10:12:30.676Z,99956.00
2023-01-09T10:15:01.546Z,99928.91
2023-01-09T10:17:51.734Z,99957.88
2023-01-09T10:20:43.492Z,99964.06
2023-01-09T10:23:33.806Z,99971.13
2023-01-09T10:26:08.050Z,99960.63
2023-01-09T10:28:59.417Z,99957.22
2023-01-09T10:31:36.300Z,99954.56
2023-01-09T10:34:22.764Z,99949.38
2023-01-09T10:37:06.526Z,99975.66
2023-01-09T10:39:42.732Z,99984.38
2023-01-09T10:42:24.003Z,99986.03
2023-01-09T10:44:59.456Z,99997.53
2023-01-09T10:47:32.716Z,99975.03
2023-01-09T10:50:15.033Z,99941.91
2023-01-09T10:52:44.849Z,99997.91
2023-01-09T10:55:21.143Z,99936.63
2023-01-09T10:57:55.186Z,100002.19
2023-01-09T11:00:25.844Z,99942.72
2023-01-09T11:02:56.182Z,99982.72
2023-01-09T11:05:31.138Z,99991.50
2023-01-09T11:08:07.859Z,99978.97
2023-01-09T11:10:48.811Z,100010.44
2023-01-09T11:13:22.938Z,100016.75
2023-01-09T11:16:05.698Z,100018.50
2023-01-09T11:18:36.148Z,100016.72
2023-01-09T11:21:34.070Z,99977.44
2023-01-09T11:24:29.936Z,99980.13
2023-01-09T11:27:25.160Z,99955.75
2023-01-09T11:30:24.088Z,100029.16
2023-01-09T11:32:52.538Z,100031.13
2023-01-09T11:35:33.909Z,100025.91
2023-01-09T11:38:15.582Z,100017.19
2023-01-09T11:40:50.687Z,100008.38
2023-01-09T11:43:30.483Z,100043.34
2023-01-09T11:46:02.237Z,100019.44
2023-01-09T11:48:59.008Z,100054.34
2023-01-09T11:51:30.143Z,100025.22
2023-01-09T11:54:26.018Z,100052.53
2023-01-09T11:56:55.693Z,99984.50
2023-01-09T11:59:29.441Z,100060.53
2023-01-09T12:02:33.998Z,100059.53
2023-01-09T12:05:13.135Z,100048.22
2023-01-09T12:08:08.141Z,100030.91
2023-01-09T12:10:56.448Z,100066.84
2023-01-09T12:13:42.741Z,100052.25
2023-01-09T12:16:21.042Z,100074.22
2023-01-09T12:19:09.052Z,100014.84
2023-01-09T12:21:45.727Z,100059.31
2023-01-09T12:24:49.576Z,100066.31
2023-01-09T12:27:33.676Z,100061.00
2023-01-09T12:30:49.112Z,100054.00
2023-01-09T12:33:37.709Z,100066.31
2023-01-09T12:36:30.536Z,100060.84
2023-01-09T12:39:16.455Z,100073.00
2023-01-09T12:42:15.353Z,100082.31
2023-01-09T12:44:52.427Z,100080.41
2023-01-09T12:47:45.176Z,100088.28
2023-01-09T12:50:54.894Z,100091.53
2023-01-09T12:53:27.013Z,100107.88
2023-01-09T12:56:05.445Z,100106.75
2023-01-09T12:58:43.399Z,100077.63
2023-01-09T13:01:22.424Z,100116.09
2023-01-09T13:04:00.428Z,100093.19
2023-01-09T13:06:31.220Z,100132.66
2023-01-09T13:09:15.368Z,100123.84
2023-01-09T13:11:51.281Z,100111.69
2023-01-09T13:14:26.471Z,100141.44
2023-01-09T13:16:58.229Z,100139.59
2023-01-09T13:19:32.698Z,100105.41
2023-01-09T13:22:01.683Z,100136.66
2023-01-09T13:24:39.171Z,100095.78
2023-01-09T13:27:11.965Z,100137.22
2023-01-09T13:29:45.669Z,100112.41
2023-01-09T13:32:40.931Z,100148.28
2023-01-09T13:35:15.724Z,100136.16
2023-01-09T13:37:50.809Z,100090.66
2023-01-09T13:40:32.927Z,100097.66
2023-01-09T13:43:06.629Z,100129.13
2023-01-09T13:45:37.793Z,100125.53
2023-01-09T13:48:30.748Z,100156.94
2023-01-09T13:52:00.486Z,100159.53
2023-01-09T13:55:25.190Z,100169.44
2023-01-09T13:58:22.984Z,100152.88
2023-01-09T14:01:04.922Z,100187.84
2023-01-09T14:03:38.126Z,100130.75
2023-01-09T14:06:17.877Z,100195.41
2023-01-09T14:09:14.542Z,100194.47
2023-01-09T14:11:44.391Z,100198.84
2023-01-09T14:14:27.342Z,100192.09
2023-01-09T14:16:56.157Z,100189.59
2023-01-09T14:19:38.319Z,100213.31
2023-01-09T14:22:08.369Z,100165.03
2023-01-09T14:24:46.384Z,100200.50
2023-01-09T14:28:22.615Z,100253.19
2023-01-09T14:31:12.032Z,100215.84
2023-01-09T14:33:40.692Z,100239.28
2023-01-09T14:36:21.658Z,100269.22
2023-01-09T14:38:53.359Z,100276.94
2023-01-09T14:41:48.829Z,100247.72
2023-01-09T14:44:28.678Z,100219.13
2023-01-09T14:47:01.316Z,100295.50
2023-01-09T14:49:36.977Z,100291.41
2023-01-09T14:52:16.614Z,100238.72
2023-01-09T14:54:46.312Z,100295.78
2023-01-09T14:57:27.755Z,100256.38
2023-01-09T15:00:00.920Z,100297.59
2023-01-09T15:02:32.867Z,100316.78
2023-01-09T15:05:09.288Z,100323.00
2023-01-09T15:07:44.506Z,100265.78
2023-01-09T15:10:19.781Z,100323.59
2023-01-09T15:12:50.745Z,100319.94
2023-01-09T15:15:21.505Z,100351.34
2023-01-09T15:17:56.731Z,100338.81
2023-01-09T15:20:28.829Z,100341.53
2023-01-09T15:23:00.765Z,100350.22
2023-01-09T15:25:40.739Z,100350.28
2023-01-09T15:28:31.071Z,100364.19
2023-01-09T15:31:07.046Z,100372.03
2023-01-09T15:33:36.735Z,100369.44
2023-01-09T15:36:12.594Z,100387.09
2023-01-09T15:38:43.506Z,100394.00
2023-01-09T15:41:38.694Z,100383.25
2023-01-09T15:44:16.176Z,100411.22
2023-01-09T15:46:46.538Z,100372.78
2023-01-09T15:49:15.667Z,100374.78
2023-01-09T15:51:47.220Z,100385.28
2023-01-09T15:54:19.583Z,100426.34
2023-01-09T15:56:48.201Z,100423.34
2023-01-09T15:59:29.843Z,100403.09
2023-01-09T16:02:14.751Z,100431.88
2023-01-09T16:04:43.557Z,100425.25
2023-01-09T16:07:17.690Z,100447.38
2023-01-09T16:09:52.522Z,100446.94
2023-01-09T16:12:23.807Z,100405.44
2023-01-09T16:14:55.478Z,100439.41
2023-01-09T16:17:26.766Z,100440.06
2023-01-09T16:19:59.758Z,100446.47
2023-01-09T16:22:30.444Z,100449.88
2023-01-09T16:25:02.520Z,100460.34
2023-01-09T16:27:33.367Z,100479.59
2023-01-09T16:30:03.170Z,100479.22
2023-01-09T16:32:36.753Z,100505.66
2023-01-09T16:35:08.679Z,100508.31
2023-01-09T16:37:37.529Z,100524.03
2023-01-09T16:40:36.217Z,100528.50
2023-01-09T16:43:05.175Z,100498.03
2023-01-09T16:45:36.734Z,100508.28
2023-01-09T16:48:14.229Z,100518.13
2023-01-09T16:50:42.884Z,100535.63
2023-01-09T16:53:16.775Z,100526.75
2023-01-09T16:55:47.455Z,100554.09
2023-01-09T16:58:18.850Z,100566.50
2023-01-09T17:00:47.968Z,100562.56
2023-01-09T17:03:17.145Z,100547.56
2023-01-09T17:05:45.629Z,100574.66
2023-01-09T17:08:23.568Z,100528.38
2023-01-09T17:10:55.809Z,100595.91
2023-01-09T17:13:24.824Z,100539.50
2023-01-09T17:15:54.846Z,100563.50
2023-01-09T17:18:26.275Z,100592.56
2023-01-09T17:20:57.511Z,100603.97
2023-01-09T17:23:26.783Z,100604.56
2023-01-09T17:26:17.802Z,100600.94
2023-01-09T17:28:50.595Z,100617.50
2023-01-09T17:31:20.195Z,100599.06
2023-01-09T17:33:48.722Z,100554.44
2023-01-09T17:36:28.566Z,100579.34
2023-01-09T17:38:57.023Z,100635.81
2023-01-09T17:41:29.149Z,100620.16
2023-01-09T17:43:59.668Z,100623.78
2023-01-09T17:46:31.690Z,100614.66
2023-01-09T17:49:00.747Z,100648.78
2023-01-09T17:51:30.726Z,100650.34
2023-01-09T17:53:59.616Z,100630.81
2023-01-09T17:56:37.369Z,100623.84
2023-01-09T17:59:06.477Z,100693.84
2023-01-09T18:01:34.935Z,100693.69
2023-01-09T18:04:03.367Z,100689.50
2023-01-09T18:06:31.887Z,100674.00
2023-01-09T18:09:00.352Z,100704.09
2023-01-09T18:11:30.978Z,100712.72
2023-01-09T18:14:00.033Z,100715.59
2023-01-09T18:16:30.426Z,100727.16
2023-01-09T18:19:00.109Z,100668.00
2023-01-09T18:21:30.933Z,100669.09
2023-01-09T18:24:01.434Z,100710.50
2023-01-09T18:26:32.083Z,100733.03
2023-01-09T18:29:01.971Z,100749.38
2023-01-09T18:31:31.959Z,100690.53
2023-01-09T18:34:02.523Z,100705.53
2023-01-09T18:36:31.127Z,100689.44
2023-01-09T18:39:01.941Z,100708.25
2023-01-09T18:41:32.773Z,100757.03
2023-01-09T18:44:02.791Z,100764.25
2023-01-09T18:46:32.297Z,100770.66
2023-01-09T18:49:03.666Z,100777.16
2023-01-09T18:51:34.531Z,100788.28
2023-01-09T18:54:03.248Z,100742.31
2023-01-09T18:56:33.113Z,100803.94
2023-01-09T18:59:01.621Z,100754.38
2023-01-09T19:01:31.257Z,100820.47
2023-01-09T19:04:01.210Z,100819.72
2023-01-09T19:06:31.143Z,100774.53
2023-01-09T19:09:00.224Z,100778.56
2023-01-09T19:11:29.039Z,100834.66
2023-01-09T19:13:58.847Z,100840.03
2023-01-09T19:16:27.503Z,100853.09
2023-01-09T19:18:57.288Z,100849.53
2023-01-09T19:21:26.902Z,100833.34
2023-01-09T19:23:55.342Z,100847.97
2023-01-09T19:26:26.026Z,100883.94
2023-01-09T19:28:57.719Z,100818.81
2023-01-09T19:31:29.837Z,100898.00
2023-01-09T19:33:59.098Z,100821.91
2023-01-09T19:36:28.966Z,100899.16
2023-01-09T19:38:58.446Z,100894.44
2023-01-09T19:41:27.294Z,100915.31
2023-01-09T19:43:55.743Z,100897.25
2023-01-09T19:46:27.505Z,100915.88
2023-01-09T19:48:58.847Z,100923.69
2023-01-09T19:51:27.417Z,100894.41
2023-01-09T19:56:29.624Z,100939.75
2023-01-09T19:59:00.312Z,100933.91
2023-01-09T20:01:32.705Z,100950.88
2023-01-09T20:04:07.900Z,100952.41
2023-01-09T20:06:39.283Z,100953.00
2023-01-09T20:09:08.228Z,100966.19
2023-01-09T20:11:36.854Z,100964.34
2023-01-09T20:14:05.218Z,100963.41
2023-01-09T20:16:35.158Z,100958.13
2023-01-09T20:19:07.410Z,100968.31
2023-01-09T20:21:36.993Z,100980.28
2023-01-09T20:24:07.210Z,100969.56
2023-01-09T20:26:39.586Z,100870.91
2023-01-09T20:29:08.787Z,100964.59
2023-01-09T20:31:38.943Z,100960.97
2023-01-09T20:34:07.556Z,100996.25
2023-01-09T20:36:36.341Z,100976.13
2023-01-09T20:39:10.644Z,101007.34
2023-01-09T20:41:39.395Z,101008.41
2023-01-09T20:44:11.357Z,101014.59
2023-01-09T20:46:43.558Z,100971.91
2023-01-09T20:49:14.945Z,101027.44
2023-01-09T20:51:46.796Z,101035.06
2023-01-09T20:54:16.346Z,100991.94
2023-01-09T20:56:44.834Z,100972.91
2023-01-09T20:59:17.007Z,101032.53
2023-01-09T21:01:47.146Z,101037.75
2023-01-09T21:04:15.659Z,101035.03
2023-01-09T21:06:44.256Z,100972.84
2023-01-09T21:09:12.894Z,101046.81
2023-01-09T21:11:41.334Z,101054.53
2023-01-09T21:14:10.939Z,101006.69
2023-01-09T21:16:40.440Z,101039.28
2023-01-09T21:19:10.833Z,101071.84
2023-01-09T21:21:39.378Z,101089.00
2023-01-09T21:24:09.234Z,101090.03
2023-01-09T21:26:37.687Z,101075.28
2023-01-09T21:29:08.420Z,101021.31
2023-01-09T21:31:37.060Z,101059.91
2023-01-09T21:34:08.377Z,101071.84
2023-01-09T21:36:38.180Z,101094.50
2023-01-09T21:39:08.434Z,101065.94
2023-01-09T21:41:54.424Z,101059.78
2023-01-09T21:44:40.162Z,101055.84
2023-01-09T21:47:09.258Z,101105.81
2023-01-09T21:49:42.184Z,101097.16
2023-01-09T21:52:13.538Z,101079.00
2023-01-09T21:54:42.734Z,101093.16
2023-01-09T21:57:12.945Z,101092.56
2023-01-09T21:59:41.528Z,101124.41
2023-01-09T22:02:13.329Z,101109.31
2023-01-09T22:04:42.999Z,101109.00
2023-01-09T22:07:12.971Z,101104.56
2023-01-09T22:09:44.585Z,101143.28
2023-01-09T22:12:14.012Z,101131.16
2023-01-09T22:14:42.718Z,101148.56
2023-01-09T22:17:11.153Z,101151.97
2023-01-09T22:19:39.681Z,101148.50
2023-01-09T22:22:08.588Z,101084.75
2023-01-09T22:24:38.455Z,101172.78
2023-01-09T22:27:07.148Z,101146.75
2023-01-09T22:29:35.712Z,101199.16
2023-01-09T22:32:04.413Z,101145.13
2023-01-09T22:34:32.993Z,101207.72
2023-01-09T22:37:02.498Z,101213.63
2023-01-09T22:39:30.999Z,101182.81
2023-01-09T22:42:00.675Z,101230.31
2023-01-09T22:44:29.120Z,101238.16
2023-01-09T22:46:58.403Z,101206.78
2023-01-09T22:49:30.256Z,101238.59
2023-01-09T22:52:01.811Z,101214.72
2023-01-09T22:54:30.251Z,101260.38
2023-01-09T22:57:00.075Z,101248.81
2023-01-09T22:59:29.612Z,101268.84
2023-01-09T23:01:59.356Z,101238.53
2023-01-09T23:04:27.877Z,101271.31
2023-01-09T23:06:56.439Z,101302.53
2023-01-09T23:09:25.531Z,101309.19
2023-01-09T23:12:06.846Z,101323.53
2023-01-09T23:14:39.464Z,101326.78
2023-01-09T23:17:11.940Z,101330.28
2023-01-09T23:19:40.776Z,101330.56
2023-01-09T23:22:09.196Z,101323.19
2023-01-09T23:24:37.715Z,101293.22
2023-01-09T23:27:07.556Z,101303.78
2023-01-09T23:29:39.555Z,101301.75
2023-01-09T23:32:08.200Z,101330.13
2023-01-09T23:34:36.895Z,101332.16
2023-01-09T23:37:08.979Z,101346.88
2023-01-09T23:39:37.775Z,101329.03
2023-01-09T23:42:23.815Z,101356.38
2023-01-09T23:44:53.582Z,101356.91
2023-01-09T23:47:22.014Z,101347.41
2023-01-09T23:49:50.514Z,101371.09
2023-01-09T23:52:18.946Z,101374.97
2023-01-09T23:54:47.294Z,101364.28
2023-01-09T23:57:15.633Z,101360.16
2023-01-09T23:59:44.023Z,101408.19
